Almirante Gago Coutinho — CTHA — position and weather

sailwx.info

Track history (hours):
 
Tides and Currents Weather Stations Pressure Air Temp Water Temp Dewpoint Dewpoint Depression Visibility Wind Speed Wind Dir Waves Ship Positions

Oceanographic research ship Almirante Gago Coutinho (Portugal)

Detailed information on ship capabilities available from University of Delaware's Ocean Information Center.

Last reported at 2020-Mar-21 22:07 UTC. Time now 2020-Mar-31 12:29 UTC.
Position N 38°40' W 009°09'.
Warning: this ship's position is 9 days out of date.

Length 69 m; draft 4.6 m.

Type: Military. MMSI: 263145000.

Date/timePositionNaut miles runAvg speedWind from/ knotsBaromVisibWave heightAir tempDewpointWater temp
2020-Mar-21 22:07N 38°40' W 009°09'4 2.2
2020-Mar-21 20:22N 38°41' W 009°14'6 6.4
2020-Mar-21 19:30N 38°39' W 009°20'8 5.2
2020-Mar-21 18:00N 38°31' W 009°19'4 7.7
2020-Mar-21 17:30N 38°28' W 009°17'8 7.8
2020-Mar-21 16:30N 38°20' W 009°14'23 7.6
2020-Mar-21 13:30N 38°01' W 008°58'9 4.7
2020-Mar-21 11:30N 37°55' W 008°49'0 0.0
2020-Mar-21 09:30N 37°55' W 008°49'22 3.4
2020-Mar-21 03:00N 38°11' W 009°08'3 6.1
2020-Mar-21 02:30N 38°14' W 009°10'3 6.0
2020-Mar-21 02:00N 38°16' W 009°13'3 6.0
2020-Mar-21 01:30N 38°18' W 009°15'3 5.9
2020-Mar-21 01:00N 38°21' W 009°17'6 5.6
2020-Mar-21 00:00N 38°25' W 009°22'6 5.5
2020-Mar-20 23:00N 38°30' W 009°26'11 7.6
2020-Mar-20 21:30N 38°39' W 009°34'4 7.9
2020-Mar-20 21:00N 38°43' W 009°34'4 8.0
2020-Mar-20 20:30N 38°47' W 009°33'8 8.2
2020-Mar-20 19:30N 38°55' W 009°31'4 7.9
2020-Mar-20 19:00N 38°59' W 009°31'17 8.3
2020-Mar-20 17:00N 39°15' W 009°27'5 1.9
2020-Mar-20 14:29N 39°20' W 009°26'115 2.7
2020-Mar-18 20:01N 41°10' W 008°43'1 0.5
2020-Mar-18 18:30N 41°09' W 008°43'5 0.6
2020-Mar-18 09:58N 41°12' W 008°48'1 3.1
2020-Mar-18 09:30N 41°13' W 008°47'  
2020-Mar-15 22:31N 41°11' W 008°42'1 2.4
2020-Mar-15 22:01N 41°10' W 008°43'2 3.6
2020-Mar-15 21:30N 41°08' W 008°44'2 3.7
2020-Mar-15 21:00N 41°10' W 008°45'5 5.3
2020-Mar-15 20:00N 41°15' W 008°48'6 0.7
2020-Mar-15 10:53N 41°10' W 008°54'  
Track history (hours):
 
Tides and Currents Weather Stations Pressure Air Temp Water Temp Dewpoint Dewpoint Depression Visibility Wind Speed Wind Dir Waves Ship Positions

Oceanographic research ship Almirante Gago Coutinho (Portugal)

Detailed information on ship capabilities available from University of Delaware's Ocean Information Center.

Last reported at 2020-Mar-21 22:07 UTC. Time now 2020-Mar-31 12:29 UTC.
Position N 38°40' W 009°09'.
Warning: this ship's position is 9 days out of date.

Length 69 m; draft 4.6 m.

Type: Military. MMSI: 263145000.

Date/timePositionNaut miles runAvg speedWind from/ knotsBaromVisibWave heightAir tempDewpointWater temp
2020-Mar-21 22:07N 38°40' W 009°09'4 2.2
2020-Mar-21 20:22N 38°41' W 009°14'6 6.4
2020-Mar-21 19:30N 38°39' W 009°20'8 5.2
2020-Mar-21 18:00N 38°31' W 009°19'4 7.7
2020-Mar-21 17:30N 38°28' W 009°17'8 7.8
2020-Mar-21 16:30N 38°20' W 009°14'23 7.6
2020-Mar-21 13:30N 38°01' W 008°58'9 4.7
2020-Mar-21 11:30N 37°55' W 008°49'0 0.0
2020-Mar-21 09:30N 37°55' W 008°49'22 3.4
2020-Mar-21 03:00N 38°11' W 009°08'3 6.1
2020-Mar-21 02:30N 38°14' W 009°10'3 6.0
2020-Mar-21 02:00N 38°16' W 009°13'3 6.0
2020-Mar-21 01:30N 38°18' W 009°15'3 5.9
2020-Mar-21 01:00N 38°21' W 009°17'6 5.6
2020-Mar-21 00:00N 38°25' W 009°22'6 5.5
2020-Mar-20 23:00N 38°30' W 009°26'11 7.6
2020-Mar-20 21:30N 38°39' W 009°34'4 7.9
2020-Mar-20 21:00N 38°43' W 009°34'4 8.0
2020-Mar-20 20:30N 38°47' W 009°33'8 8.2
2020-Mar-20 19:30N 38°55' W 009°31'4 7.9
2020-Mar-20 19:00N 38°59' W 009°31'17 8.3
2020-Mar-20 17:00N 39°15' W 009°27'5 1.9
2020-Mar-20 14:29N 39°20' W 009°26'115 2.7
2020-Mar-18 20:01N 41°10' W 008°43'1 0.5
2020-Mar-18 18:30N 41°09' W 008°43'5 0.6
2020-Mar-18 09:58N 41°12' W 008°48'1 3.1
2020-Mar-18 09:30N 41°13' W 008°47'  
2020-Mar-15 22:31N 41°11' W 008°42'1 2.4
2020-Mar-15 22:01N 41°10' W 008°43'2 3.6
2020-Mar-15 21:30N 41°08' W 008°44'2 3.7
2020-Mar-15 21:00N 41°10' W 008°45'5 5.3
2020-Mar-15 20:00N 41°15' W 008°48'6 0.7
2020-Mar-15 10:53N 41°10' W 008°54'  

Dump ship's entire track history